sensor_id;sensor_type;location;lat;lon;timestamp;pressure;altitude;pressure_sealevel;temperature;humidity
62150;BME280;48134;53.586;10.610;2024-03-08T00:00:52;101860.47;;;-1.20;100.00
62150;BME280;48134;53.586;10.610;2024-03-08T00:03:26;101856.31;;;-1.23;100.00
62150;BME280;48134;53.586;10.610;2024-03-08T00:06:01;101864.50;;;-1.24;100.00
62150;BME280;48134;53.586;10.610;2024-03-08T00:08:33;101855.00;;;-1.35;100.00
62150;BME280;48134;53.586;10.610;2024-03-08T00:11:06;101864.53;;;-1.32;100.00
62150;BME280;48134;53.586;10.610;2024-03-08T00:13:40;101853.44;;;-1.13;100.00
62150;BME280;48134;53.586;10.610;2024-03-08T00:16:13;101852.28;;;-1.18;100.00
62150;BME280;48134;53.586;10.610;2024-03-08T00:18:42;101847.78;;;-1.26;100.00
62150;BME280;48134;53.586;10.610;2024-03-08T00:21:15;101848.50;;;-1.32;100.00
62150;BME280;48134;53.586;10.610;2024-03-08T00:23:50;101855.63;;;-1.25;100.00
62150;BME280;48134;53.586;10.610;2024-03-08T00:26:18;101857.31;;;-1.24;100.00
62150;BME280;48134;53.586;10.610;2024-03-08T00:28:46;101854.84;;;-1.33;100.00
62150;BME280;48134;53.586;10.610;2024-03-08T00:31:15;101850.31;;;-1.33;100.00
62150;BME280;48134;53.586;10.610;2024-03-08T00:33:43;101847.03;;;-1.43;100.00
62150;BME280;48134;53.586;10.610;2024-03-08T00:36:12;101844.53;;;-1.45;100.00
62150;BME280;48134;53.586;10.610;2024-03-08T00:38:45;101848.22;;;-1.62;100.00
62150;BME280;48134;53.586;10.610;2024-03-08T00:41:20;101841.22;;;-1.63;100.00
62150;BME280;48134;53.586;10.610;2024-03-08T00:43:53;101837.84;;;-1.41;100.00
62150;BME280;48134;53.586;10.610;2024-03-08T00:46:26;101841.16;;;-1.39;100.00
62150;BME280;48134;53.586;10.610;2024-03-08T00:48:55;101839.53;;;-1.56;100.00
62150;BME280;48134;53.586;10.610;2024-03-08T00:51:29;101830.53;;;-1.63;100.00
62150;BME280;48134;53.586;10.610;2024-03-08T00:53:57;101832.41;;;-1.72;100.00
62150;BME280;48134;53.586;10.610;2024-03-08T00:56:32;101832.75;;;-1.75;100.00
62150;BME280;48134;53.586;10.610;2024-03-08T00:59:00;101826.25;;;-1.73;100.00
62150;BME280;48134;53.586;10.610;2024-03-08T01:01:29;101831.06;;;-1.68;100.00
62150;BME280;48134;53.586;10.610;2024-03-08T01:04:02;101829.22;;;-1.67;100.00
62150;BME280;48134;53.586;10.610;2024-03-08T01:06:36;101822.88;;;-1.58;100.00
62150;BME280;48134;53.586;10.610;2024-03-08T01:09:09;101819.19;;;-1.57;100.00
62150;BME280;48134;53.586;10.610;2024-03-08T01:11:40;101817.22;;;-1.72;100.00
62150;BME280;48134;53.586;10.610;2024-03-08T01:14:14;101812.06;;;-1.73;100.00
62150;BME280;48134;53.586;10.610;2024-03-08T01:16:47;101813.56;;;-1.79;100.00
62150;BME280;48134;53.586;10.610;2024-03-08T01:19:21;101815.03;;;-1.60;100.00
62150;BME280;48134;53.586;10.610;2024-03-08T01:21:50;101800.88;;;-1.68;100.00
62150;BME280;48134;53.586;10.610;2024-03-08T01:24:24;101798.56;;;-1.80;100.00
62150;BME280;48134;53.586;10.610;2024-03-08T01:26:54;101786.88;;;-1.79;100.00
62150;BME280;48134;53.586;10.610;2024-03-08T01:29:27;101789.03;;;-1.82;100.00
62150;BME280;48134;53.586;10.610;2024-03-08T01:31:56;101790.41;;;-1.95;100.00
62150;BME280;48134;53.586;10.610;2024-03-08T01:34:30;101779.25;;;-1.90;100.00
62150;BME280;48134;53.586;10.610;2024-03-08T01:37:03;101779.72;;;-1.95;100.00
62150;BME280;48134;53.586;10.610;2024-03-08T01:39:31;101771.72;;;-1.86;100.00
62150;BME280;48134;53.586;10.610;2024-03-08T01:42:07;101765.75;;;-1.97;100.00
62150;BME280;48134;53.586;10.610;2024-03-08T01:44:40;101768.59;;;-1.98;100.00
62150;BME280;48134;53.586;10.610;2024-03-08T01:47:15;101757.91;;;-1.98;100.00
62150;BME280;48134;53.586;10.610;2024-03-08T01:49:48;101756.06;;;-1.90;100.00
62150;BME280;48134;53.586;10.610;2024-03-08T01:52:22;101757.03;;;-1.82;100.00
62150;BME280;48134;53.586;10.610;2024-03-08T01:54:58;101751.88;;;-1.92;100.00
62150;BME280;48134;53.586;10.610;2024-03-08T01:57:34;101748.53;;;-1.78;100.00
62150;BME280;48134;53.586;10.610;2024-03-08T02:00:05;101746.88;;;-1.87;100.00
62150;BME280;48134;53.586;10.610;2024-03-08T02:02:42;101735.56;;;-1.89;100.00
62150;BME280;48134;53.586;10.610;2024-03-08T02:05:16;101734.31;;;-1.78;100.00
62150;BME280;48134;53.586;10.610;2024-03-08T02:07:45;101734.22;;;-1.85;100.00
62150;BME280;48134;53.586;10.610;2024-03-08T02:10:18;101725.88;;;-1.90;100.00
62150;BME280;48134;53.586;10.610;2024-03-08T02:12:53;101725.66;;;-1.72;100.00
62150;BME280;48134;53.586;10.610;2024-03-08T02:15:21;101731.00;;;-1.72;100.00
62150;BME280;48134;53.586;10.610;2024-03-08T02:17:49;101727.00;;;-1.76;100.00
62150;BME280;48134;53.586;10.610;2024-03-08T02:20:18;101725.53;;;-1.87;100.00
62150;BME280;48134;53.586;10.610;2024-03-08T02:22:53;101723.38;;;-1.83;100.00
62150;BME280;48134;53.586;10.610;2024-03-08T02:25:22;101721.50;;;-1.83;100.00
62150;BME280;48134;53.586;10.610;2024-03-08T02:27:55;101722.88;;;-1.95;100.00
62150;BME280;48134;53.586;10.610;2024-03-08T02:30:28;101720.22;;;-1.95;100.00
62150;BME280;48134;53.586;10.610;2024-03-08T02:33:02;101715.75;;;-2.03;100.00
62150;BME280;48134;53.586;10.610;2024-03-08T02:35:30;101722.75;;;-2.10;100.00
62150;BME280;48134;53.586;10.610;2024-03-08T02:38:05;101729.78;;;-2.17;100.00
62150;BME280;48134;53.586;10.610;2024-03-08T02:40:39;101725.78;;;-2.22;100.00
62150;BME280;48134;53.586;10.610;2024-03-08T02:43:13;101726.59;;;-2.29;100.00
62150;BME280;48134;53.586;10.610;2024-03-08T02:45:42;101723.28;;;-2.31;100.00
62150;BME280;48134;53.586;10.610;2024-03-08T02:48:16;101725.78;;;-2.38;100.00
62150;BME280;48134;53.586;10.610;2024-03-08T02:50:49;101724.97;;;-2.38;100.00
62150;BME280;48134;53.586;10.610;2024-03-08T02:53:20;101729.31;;;-2.46;100.00
62150;BME280;48134;53.586;10.610;2024-03-08T02:55:49;101725.44;;;-2.35;100.00
62150;BME280;48134;53.586;10.610;2024-03-08T02:58:22;101723.13;;;-2.38;100.00
62150;BME280;48134;53.586;10.610;2024-03-08T03:00:55;101717.97;;;-2.40;100.00
62150;BME280;48134;53.586;10.610;2024-03-08T03:03:24;101720.47;;;-2.38;100.00
62150;BME280;48134;53.586;10.610;2024-03-08T03:05:58;101718.16;;;-2.49;100.00
62150;BME280;48134;53.586;10.610;2024-03-08T03:08:34;101708.47;;;-2.50;100.00
62150;BME280;48134;53.586;10.610;2024-03-08T03:11:07;101711.31;;;-2.52;100.00
62150;BME280;48134;53.586;10.610;2024-03-08T03:13:40;101710.97;;;-2.49;100.00
62150;BME280;48134;53.586;10.610;2024-03-08T03:16:17;101713.16;;;-2.52;100.00
62150;BME280;48134;53.586;10.610;2024-03-08T03:18:47;101709.47;;;-2.51;100.00
62150;BME280;48134;53.586;10.610;2024-03-08T03:21:20;101715.81;;;-2.52;100.00
62150;BME280;48134;53.586;10.610;2024-03-08T03:23:55;101707.50;;;-2.58;100.00
62150;BME280;48134;53.586;10.610;2024-03-08T03:26:28;101707.84;;;-2.52;100.00
62150;BME280;48134;53.586;10.610;2024-03-08T03:29:03;101699.16;;;-2.54;100.00
62150;BME280;48134;53.586;10.610;2024-03-08T03:31:32;101708.81;;;-2.53;100.00
62150;BME280;48134;53.586;10.610;2024-03-08T03:34:06;101702.66;;;-2.54;100.00
62150;BME280;48134;53.586;10.610;2024-03-08T03:36:40;101707.16;;;-2.54;100.00
62150;BME280;48134;53.586;10.610;2024-03-08T03:39:18;101702.50;;;-2.52;100.00
62150;BME280;48134;53.586;10.610;2024-03-08T03:41:53;101696.66;;;-2.48;100.00
62150;BME280;48134;53.586;10.610;2024-03-08T03:44:26;101698.16;;;-2.53;100.00
62150;BME280;48134;53.586;10.610;2024-03-08T03:46:55;101693.00;;;-2.55;100.00
62150;BME280;48134;53.586;10.610;2024-03-08T03:49:28;101697.00;;;-2.59;100.00
62150;BME280;48134;53.586;10.610;2024-03-08T03:51:56;101692.31;;;-2.57;100.00
62150;BME280;48134;53.586;10.610;2024-03-08T03:54:31;101698.81;;;-2.60;100.00
62150;BME280;48134;53.586;10.610;2024-03-08T03:57:05;101698.16;;;-2.62;100.00
62150;BME280;48134;53.586;10.610;2024-03-08T03:59:35;101687.34;;;-2.68;100.00
62150;BME280;48134;53.586;10.610;2024-03-08T04:02:08;101696.66;;;-2.72;100.00
62150;BME280;48134;53.586;10.610;2024-03-08T04:04:41;101697.81;;;-2.67;100.00
62150;BME280;48134;53.586;10.610;2024-03-08T04:07:16;101696.31;;;-2.69;100.00
62150;BME280;48134;53.586;10.610;2024-03-08T04:09:50;101690.34;;;-2.71;100.00
62150;BME280;48134;53.586;10.610;2024-03-08T04:12:19;101694.00;;;-2.72;100.00
62150;BME280;48134;53.586;10.610;2024-03-08T04:14:52;101687.84;;;-2.73;100.00
62150;BME280;48134;53.586;10.610;2024-03-08T04:17:22;101680.19;;;-2.68;100.00
62150;BME280;48134;53.586;10.610;2024-03-08T04:19:51;101688.00;;;-2.66;100.00
62150;BME280;48134;53.586;10.610;2024-03-08T04:22:24;101684.16;;;-2.56;100.00
62150;BME280;48134;53.586;10.610;2024-03-08T04:24:56;101678.69;;;-2.62;100.00
62150;BME280;48134;53.586;10.610;2024-03-08T04:27:30;101683.50;;;-2.58;100.00
62150;BME280;48134;53.586;10.610;2024-03-08T04:30:05;101681.84;;;-2.67;100.00
62150;BME280;48134;53.586;10.610;2024-03-08T04:32:39;101677.84;;;-2.71;100.00
62150;BME280;48134;53.586;10.610;2024-03-08T04:35:08;101679.50;;;-2.70;100.00
62150;BME280;48134;53.586;10.610;2024-03-08T04:37:41;101684.03;;;-2.70;100.00
62150;BME280;48134;53.586;10.610;2024-03-08T04:40:16;101677.66;;;-2.69;100.00
62150;BME280;48134;53.586;10.610;2024-03-08T04:42:51;101681.34;;;-2.70;100.00
62150;BME280;48134;53.586;10.610;2024-03-08T04:45:25;101688.84;;;-2.82;100.00
62150;BME280;48134;53.586;10.610;2024-03-08T04:47:54;101691.34;;;-2.72;100.00
62150;BME280;48134;53.586;10.610;2024-03-08T04:50:22;101689.66;;;-2.74;100.00
62150;BME280;48134;53.586;10.610;2024-03-08T04:52:56;101680.03;;;-2.66;100.00
62150;BME280;48134;53.586;10.610;2024-03-08T04:55:31;101673.84;;;-2.75;100.00
62150;BME280;48134;53.586;10.610;2024-03-08T04:57:59;101677.53;;;-2.84;100.00
62150;BME280;48134;53.586;10.610;2024-03-08T05:00:27;101684.03;;;-2.87;100.00
62150;BME280;48134;53.586;10.610;2024-03-08T05:03:01;101682.69;;;-2.91;100.00
62150;BME280;48134;53.586;10.610;2024-03-08T05:05:29;101684.00;;;-3.03;100.00
62150;BME280;48134;53.586;10.610;2024-03-08T05:07:57;101676.34;;;-3.15;100.00
62150;BME280;48134;53.586;10.610;2024-03-08T05:10:32;101672.19;;;-3.17;100.00
62150;BME280;48134;53.586;10.610;2024-03-08T05:13:00;101681.97;;;-3.18;100.00
62150;BME280;48134;53.586;10.610;2024-03-08T05:15:29;101678.66;;;-3.20;100.00
62150;BME280;48134;53.586;10.610;2024-03-08T05:18:06;101676.16;;;-3.21;100.00
62150;BME280;48134;53.586;10.610;2024-03-08T05:20:40;101680.34;;;-3.19;100.00
62150;BME280;48134;53.586;10.610;2024-03-08T05:23:08;101675.13;;;-3.29;100.00
62150;BME280;48134;53.586;10.610;2024-03-08T05:25:43;101669.81;;;-3.29;100.00
62150;BME280;48134;53.586;10.610;2024-03-08T05:28:12;101661.50;;;-3.26;100.00
62150;BME280;48134;53.586;10.610;2024-03-08T05:30:40;101666.84;;;-3.26;100.00
62150;BME280;48134;53.586;10.610;2024-03-08T05:33:13;101661.19;;;-3.06;100.00
62150;BME280;48134;53.586;10.610;2024-03-08T05:35:42;101665.03;;;-3.09;100.00
62150;BME280;48134;53.586;10.610;2024-03-08T05:38:10;101665.53;;;-3.05;100.00
62150;BME280;48134;53.586;10.610;2024-03-08T05:40:39;101666.19;;;-3.03;100.00
62150;BME280;48134;53.586;10.610;2024-03-08T05:43:16;101659.53;;;-2.99;100.00
62150;BME280;48134;53.586;10.610;2024-03-08T05:45:51;101659.88;;;-2.94;100.00
62150;BME280;48134;53.586;10.610;2024-03-08T05:48:25;101659.88;;;-2.85;100.00
62150;BME280;48134;53.586;10.610;2024-03-08T05:50:53;101661.66;;;-2.61;100.00
62150;BME280;48134;53.586;10.610;2024-03-08T05:53:21;101660.22;;;-2.72;100.00
62150;BME280;48134;53.586;10.610;2024-03-08T05:55:55;101664.34;;;-2.69;100.00
62150;BME280;48134;53.586;10.610;2024-03-08T05:58:29;101668.03;;;-2.70;100.00
62150;BME280;48134;53.586;10.610;2024-03-08T06:01:03;101660.84;;;-2.62;100.00
62150;BME280;48134;53.586;10.610;2024-03-08T06:03:34;101662.19;;;-2.58;100.00
62150;BME280;48134;53.586;10.610;2024-03-08T06:06:08;101656.34;;;-2.61;100.00
62150;BME280;48134;53.586;10.610;2024-03-08T06:08:36;101665.34;;;-2.54;100.00
62150;BME280;48134;53.586;10.610;2024-03-08T06:11:04;101666.00;;;-2.44;100.00
62150;BME280;48134;53.586;10.610;2024-03-08T06:13:34;101671.00;;;-2.49;100.00
62150;BME280;48134;53.586;10.610;2024-03-08T06:16:07;101670.31;;;-2.34;100.00
62150;BME280;48134;53.586;10.610;2024-03-08T06:18:41;101656.13;;;-2.35;100.00
62150;BME280;48134;53.586;10.610;2024-03-08T06:21:14;101654.16;;;-2.41;100.00
62150;BME280;48134;53.586;10.610;2024-03-08T06:23:48;101656.00;;;-2.33;100.00
62150;BME280;48134;53.586;10.610;2024-03-08T06:26:21;101660.66;;;-2.35;100.00
62150;BME280;48134;53.586;10.610;2024-03-08T06:28:56;101656.13;;;-2.27;100.00
62150;BME280;48134;53.586;10.610;2024-03-08T06:31:29;101650.94;;;-2.20;100.00
62150;BME280;48134;53.586;10.610;2024-03-08T06:34:03;101657.91;;;-2.11;100.00
62150;BME280;48134;53.586;10.610;2024-03-08T06:36:39;101656.59;;;-2.15;100.00
62150;BME280;48134;53.586;10.610;2024-03-08T06:39:12;101657.59;;;-2.16;100.00
62150;BME280;48134;53.586;10.610;2024-03-08T06:41:41;101658.56;;;-2.09;100.00
62150;BME280;48134;53.586;10.610;2024-03-08T06:44:12;101662.50;;;-1.88;100.00
62150;BME280;48134;53.586;10.610;2024-03-08T06:46:46;101664.44;;;-1.74;100.00
62150;BME280;48134;53.586;10.610;2024-03-08T06:49:20;101663.44;;;-1.73;100.00
62150;BME280;48134;53.586;10.610;2024-03-08T06:51:53;101660.09;;;-1.75;100.00
62150;BME280;48134;53.586;10.610;2024-03-08T06:54:21;101653.81;;;-1.82;100.00
62150;BME280;48134;53.586;10.610;2024-03-08T06:56:55;101656.94;;;-1.78;100.00
62150;BME280;48134;53.586;10.610;2024-03-08T06:59:29;101648.44;;;-1.74;100.00
62150;BME280;48134;53.586;10.610;2024-03-08T07:01:58;101645.19;;;-1.61;100.00
62150;BME280;48134;53.586;10.610;2024-03-08T07:04:32;101646.72;;;-1.66;100.00
62150;BME280;48134;53.586;10.610;2024-03-08T07:07:00;101655.56;;;-1.66;100.00
62150;BME280;48134;53.586;10.610;2024-03-08T07:09:34;101653.94;;;-1.75;100.00
62150;BME280;48134;53.586;10.610;2024-03-08T07:12:07;101653.41;;;-1.71;100.00
62150;BME280;48134;53.586;10.610;2024-03-08T07:14:38;101653.56;;;-1.64;100.00
62150;BME280;48134;53.586;10.610;2024-03-08T07:17:07;101651.13;;;-1.82;100.00
62150;BME280;48134;53.586;10.610;2024-03-08T07:19:41;101651.97;;;-1.81;100.00
62150;BME280;48134;53.586;10.610;2024-03-08T07:22:09;101650.72;;;-1.62;100.00
62150;BME280;48134;53.586;10.610;2024-03-08T07:24:38;101649.66;;;-1.84;100.00
62150;BME280;48134;53.586;10.610;2024-03-08T07:27:23;101644.28;;;-1.76;100.00
62150;BME280;48134;53.586;10.610;2024-03-08T07:29:53;101639.97;;;-1.54;100.00
62150;BME280;48134;53.586;10.610;2024-03-08T07:32:27;101637.13;;;-1.52;100.00
62150;BME280;48134;53.586;10.610;2024-03-08T07:35:02;101644.03;;;-1.35;100.00
62150;BME280;48134;53.586;10.610;2024-03-08T07:37:30;101644.22;;;-1.37;100.00
62150;BME280;48134;53.586;10.610;2024-03-08T07:40:05;101640.56;;;-1.44;100.00
62150;BME280;48134;53.586;10.610;2024-03-08T07:42:39;101643.44;;;-1.45;100.00
62150;BME280;48134;53.586;10.610;2024-03-08T07:45:14;101642.19;;;-1.34;100.00
62150;BME280;48134;53.586;10.610;2024-03-08T07:47:48;101640.94;;;-1.47;100.00
62150;BME280;48134;53.586;10.610;2024-03-08T07:50:17;101643.03;;;-1.34;100.00
62150;BME280;48134;53.586;10.610;2024-03-08T07:52:51;101646.00;;;-1.29;100.00
62150;BME280;48134;53.586;10.610;2024-03-08T07:55:19;101647.84;;;-1.29;100.00
62150;BME280;48134;53.586;10.610;2024-03-08T07:57:51;101647.66;;;-1.28;100.00
62150;BME280;48134;53.586;10.610;2024-03-08T08:00:20;101650.53;;;-1.06;100.00
62150;BME280;48134;53.586;10.610;2024-03-08T08:02:49;101654.06;;;-1.14;100.00
62150;BME280;48134;53.586;10.610;2024-03-08T08:05:17;101644.00;;;-1.04;100.00
62150;BME280;48134;53.586;10.610;2024-03-08T08:07:46;101647.97;;;-0.99;100.00
62150;BME280;48134;53.586;10.610;2024-03-08T08:10:19;101644.03;;;-0.89;100.00
62150;BME280;48134;53.586;10.610;2024-03-08T08:12:54;101631.97;;;-0.84;100.00
62150;BME280;48134;53.586;10.610;2024-03-08T08:15:30;101628.06;;;-0.59;100.00
62150;BME280;48134;53.586;10.610;2024-03-08T08:18:05;101632.47;;;-0.66;100.00
62150;BME280;48134;53.586;10.610;2024-03-08T08:20:38;101630.06;;;-0.61;100.00
62150;BME280;48134;53.586;10.610;2024-03-08T08:23:07;101625.31;;;-0.50;100.00
62150;BME280;48134;53.586;10.610;2024-03-08T08:25:35;101626.06;;;-0.27;100.00
62150;BME280;48134;53.586;10.610;2024-03-08T08:28:10;101629.63;;;-0.20;100.00
62150;BME280;48134;53.586;10.610;2024-03-08T08:30:40;101618.41;;;-0.30;100.00
62150;BME280;48134;53.586;10.610;2024-03-08T08:33:14;101620.31;;;-0.24;100.00
62150;BME280;48134;53.586;10.610;2024-03-08T08:35:42;101629.44;;;-0.18;100.00
62150;BME280;48134;53.586;10.610;2024-03-08T08:38:16;101625.88;;;-0.10;100.00
62150;BME280;48134;53.586;10.610;2024-03-08T08:40:49;101630.53;;;0.03;100.00
62150;BME280;48134;53.586;10.610;2024-03-08T08:43:23;101630.31;;;-0.03;100.00
62150;BME280;48134;53.586;10.610;2024-03-08T08:45:53;101623.34;;;0.18;100.00
62150;BME280;48134;53.586;10.610;2024-03-08T08:48:27;101624.63;;;0.22;100.00
62150;BME280;48134;53.586;10.610;2024-03-08T08:51:01;101623.56;;;0.38;100.00
62150;BME280;48134;53.586;10.610;2024-03-08T08:53:34;101626.94;;;0.47;100.00
62150;BME280;48134;53.586;10.610;2024-03-08T08:56:09;101616.44;;;0.45;100.00
62150;BME280;48134;53.586;10.610;2024-03-08T08:58:44;101615.22;;;0.48;100.00
62150;BME280;48134;53.586;10.610;2024-03-08T09:01:14;101615.41;;;0.46;100.00
62150;BME280;48134;53.586;10.610;2024-03-08T09:03:50;101612.78;;;0.68;100.00
62150;BME280;48134;53.586;10.610;2024-03-08T09:06:24;101607.84;;;0.72;100.00
62150;BME280;48134;53.586;10.610;2024-03-08T09:08:57;101605.75;;;0.89;100.00
62150;BME280;48134;53.586;10.610;2024-03-08T09:11:31;101604.69;;;0.90;100.00
62150;BME280;48134;53.586;10.610;2024-03-08T09:13:59;101601.84;;;0.91;100.00
62150;BME280;48134;53.586;10.610;2024-03-08T09:16:35;101595.31;;;1.00;100.00
62150;BME280;48134;53.586;10.610;2024-03-08T09:19:08;101600.47;;;1.02;100.00
62150;BME280;48134;53.586;10.610;2024-03-08T09:21:42;101592.22;;;1.25;100.00
62150;BME280;48134;53.586;10.610;2024-03-08T09:24:16;101588.31;;;1.28;100.00
62150;BME280;48134;53.586;10.610;2024-03-08T09:26:49;101593.53;;;1.36;100.00
62150;BME280;48134;53.586;10.610;2024-03-08T09:29:22;101589.28;;;1.48;100.00
62150;BME280;48134;53.586;10.610;2024-03-08T09:31:52;101586.00;;;1.53;100.00
62150;BME280;48134;53.586;10.610;2024-03-08T09:34:20;101583.31;;;1.53;100.00
62150;BME280;48134;53.586;10.610;2024-03-08T09:36:49;101579.56;;;1.89;100.00
62150;BME280;48134;53.586;10.610;2024-03-08T09:39:17;101579.66;;;1.61;100.00
62150;BME280;48134;53.586;10.610;2024-03-08T09:41:48;101579.13;;;1.79;100.00
62150;BME280;48134;53.586;10.610;2024-03-08T09:44:22;101567.13;;;1.75;100.00
62150;BME280;48134;53.586;10.610;2024-03-08T09:46:53;101562.66;;;1.89;100.00
62150;BME280;48134;53.586;10.610;2024-03-08T09:49:27;101560.56;;;1.84;100.00
62150;BME280;48134;53.586;10.610;2024-03-08T09:52:00;101558.72;;;1.84;100.00
62150;BME280;48134;53.586;10.610;2024-03-08T09:54:36;101558.75;;;1.91;100.00
62150;BME280;48134;53.586;10.610;2024-03-08T09:57:06;101542.69;;;2.04;100.00
62150;BME280;48134;53.586;10.610;2024-03-08T09:59:41;101550.13;;;2.09;100.00
62150;BME280;48134;53.586;10.610;2024-03-08T10:02:21;101548.28;;;2.16;100.00
62150;BME280;48134;53.586;10.610;2024-03-08T10:04:57;101544.00;;;2.35;100.00
62150;BME280;48134;53.586;10.610;2024-03-08T10:07:25;101542.38;;;2.54;100.00
62150;BME280;48134;53.586;10.610;2024-03-08T10:09:53;101530.19;;;2.59;100.00
62150;BME280;48134;53.586;10.610;2024-03-08T10:12:22;101522.09;;;2.72;100.00
62150;BME280;48134;53.586;10.610;2024-03-08T10:14:55;101525.81;;;2.51;100.00
62150;BME280;48134;53.586;10.610;2024-03-08T10:17:30;101520.03;;;2.61;100.00
62150;BME280;48134;53.586;10.610;2024-03-08T10:20:13;101513.03;;;2.93;100.00
62150;BME280;48134;53.586;10.610;2024-03-08T10:22:47;101511.78;;;2.96;100.00
62150;BME280;48134;53.586;10.610;2024-03-08T10:25:16;101505.97;;;2.99;100.00
62150;BME280;48134;53.586;10.610;2024-03-08T10:27:49;101488.81;;;3.00;100.00
62150;BME280;48134;53.586;10.610;2024-03-08T10:30:18;101485.06;;;3.08;100.00
62150;BME280;48134;53.586;10.610;2024-03-08T10:32:53;101482.78;;;3.25;100.00
62150;BME280;48134;53.586;10.610;2024-03-08T10:35:27;101486.28;;;3.25;100.00
62150;BME280;48134;53.586;10.610;2024-03-08T10:38:00;101478.22;;;3.25;100.00
62150;BME280;48134;53.586;10.610;2024-03-08T10:40:35;101482.50;;;3.39;100.00
62150;BME280;48134;53.586;10.610;2024-03-08T10:43:03;101485.84;;;3.35;100.00
62150;BME280;48134;53.586;10.610;2024-03-08T10:45:38;101472.75;;;3.45;100.00
62150;BME280;48134;53.586;10.610;2024-03-08T10:48:27;101468.88;;;3.34;100.00
62150;BME280;48134;53.586;10.610;2024-03-08T10:51:04;101467.19;;;3.40;100.00
62150;BME280;48134;53.586;10.610;2024-03-08T10:53:39;101459.72;;;3.42;100.00
62150;BME280;48134;53.586;10.610;2024-03-08T10:56:13;101463.25;;;3.43;100.00
62150;BME280;48134;53.586;10.610;2024-03-08T10:58:47;101463.53;;;3.73;100.00
62150;BME280;48134;53.586;10.610;2024-03-08T11:01:21;101455.75;;;3.58;100.00
62150;BME280;48134;53.586;10.610;2024-03-08T11:03:57;101462.91;;;3.71;100.00
62150;BME280;48134;53.586;10.610;2024-03-08T11:06:30;101446.97;;;3.69;100.00
62150;BME280;48134;53.586;10.610;2024-03-08T11:08:59;101442.06;;;3.60;100.00
62150;BME280;48134;53.586;10.610;2024-03-08T11:11:28;101443.81;;;3.79;100.00
62150;BME280;48134;53.586;10.610;2024-03-08T11:14:03;101432.75;;;3.94;100.00
62150;BME280;48134;53.586;10.610;2024-03-08T11:16:39;101430.81;;;4.08;100.00
62150;BME280;48134;53.586;10.610;2024-03-08T11:19:26;101424.78;;;4.06;100.00
62150;BME280;48134;53.586;10.610;2024-03-08T11:21:59;101418.84;;;3.97;100.00
62150;BME280;48134;53.586;10.610;2024-03-08T11:24:37;101416.91;;;4.11;100.00
62150;BME280;48134;53.586;10.610;2024-03-08T11:27:14;101417.06;;;4.16;100.00
62150;BME280;48134;53.586;10.610;2024-03-08T11:29:43;101415.09;;;4.30;100.00
62150;BME280;48134;53.586;10.610;2024-03-08T11:32:12;101405.69;;;4.39;100.00
62150;BME280;48134;53.586;10.610;2024-03-08T11:34:49;101406.78;;;4.32;100.00
62150;BME280;48134;53.586;10.610;2024-03-08T11:37:19;101399.31;;;4.34;100.00
62150;BME280;48134;53.586;10.610;2024-03-08T11:39:54;101390.84;;;4.30;100.00
62150;BME280;48134;53.586;10.610;2024-03-08T11:42:30;101396.41;;;4.35;100.00
62150;BME280;48134;53.586;10.610;2024-03-08T11:44:59;101382.59;;;4.25;100.00
62150;BME280;48134;53.586;10.610;2024-03-08T11:47:27;101377.50;;;4.42;100.00
62150;BME280;48134;53.586;10.610;2024-03-08T11:50:00;101387.84;;;4.64;100.00
62150;BME280;48134;53.586;10.610;2024-03-08T11:52:35;101377.00;;;4.70;100.00
62150;BME280;48134;53.586;10.610;2024-03-08T11:55:08;101368.38;;;4.62;100.00
62150;BME280;48134;53.586;10.610;2024-03-08T11:57:44;101367.25;;;4.69;100.00
62150;BME280;48134;53.586;10.610;2024-03-08T12:00:19;101359.84;;;4.65;100.00
62150;BME280;48134;53.586;10.610;2024-03-08T12:03:02;101359.38;;;5.05;100.00
62150;BME280;48134;53.586;10.610;2024-03-08T12:05:32;101361.28;;;5.04;100.00
62150;BME280;48134;53.586;10.610;2024-03-08T12:08:02;101351.81;;;5.14;100.00
62150;BME280;48134;53.586;10.610;2024-03-08T12:10:37;101353.03;;;4.99;100.00
62150;BME280;48134;53.586;10.610;2024-03-08T12:13:06;101347.31;;;5.07;100.00
62150;BME280;48134;53.586;10.610;2024-03-08T12:15:44;101344.69;;;5.01;100.00
62150;BME280;48134;53.586;10.610;2024-03-08T12:18:19;101336.69;;;5.13;100.00
62150;BME280;48134;53.586;10.610;2024-03-08T12:21:04;101330.06;;;5.27;100.00
62150;BME280;48134;53.586;10.610;2024-03-08T12:23:39;101329.56;;;5.18;100.00
62150;BME280;48134;53.586;10.610;2024-03-08T12:26:13;101323.75;;;5.03;100.00
62150;BME280;48134;53.586;10.610;2024-03-08T12:28:47;101321.53;;;5.11;100.00
62150;BME280;48134;53.586;10.610;2024-03-08T12:31:16;101311.31;;;5.32;100.00
62150;BME280;48134;53.586;10.610;2024-03-08T12:33:54;101301.69;;;5.36;100.00
62150;BME280;48134;53.586;10.610;2024-03-08T12:36:29;101295.50;;;5.48;100.00
62150;BME280;48134;53.586;10.610;2024-03-08T12:38:59;101297.16;;;5.60;100.00
62150;BME280;48134;53.586;10.610;2024-03-08T12:41:39;101295.53;;;5.59;100.00
62150;BME280;48134;53.586;10.610;2024-03-08T12:44:12;101291.47;;;5.26;100.00
62150;BME280;48134;53.586;10.610;2024-03-08T12:46:45;101294.63;;;5.05;100.00
62150;BME280;48134;53.586;10.610;2024-03-08T12:49:20;101290.50;;;5.21;100.00
62150;BME280;48134;53.586;10.610;2024-03-08T12:51:50;101280.41;;;5.58;100.00
62150;BME280;48134;53.586;10.610;2024-03-08T12:54:24;101284.22;;;5.51;100.00
62150;BME280;48134;53.586;10.610;2024-03-08T12:56:53;101277.97;;;5.26;100.00
62150;BME280;48134;53.586;10.610;2024-03-08T12:59:26;101268.13;;;5.32;100.00